Time;durP1;ratioP1;P1;durP2;ratioP2;P2;SDS_P1;SDS_P2;PMS_P1;PMS_P2;Temp;Humidity;BMP_temperature;BMP_pressure;BME280_temperature;BME280_humidity;BME280_pressure;Samples;Min_cycle;Max_cycle;Signal;HPM_P1;HPM_P2
2021/11/19 00:00:59;;;;;;;;;;;;;;;13.97;56.32;102918.91;4188851;28;19955;-61
2021/11/19 00:03:02;;;;;;;;;;;;;;;13.97;56.57;102918.91;4189352;28;20004;-62
2021/11/19 00:05:04;;;;;;;;;;;;;;;13.97;56.67;102918.91;4189210;28;20035;-61
2021/11/19 00:07:07;;;;;;;;;;;;;;;13.98;56.24;102925.06;4189084;28;19916;-61
2021/11/19 00:09:09;;;;;;;;;;;;;;;13.97;56.43;102918.03;4188893;28;20216;-62
2021/11/19 00:11:13;;;;;;;;;;;;;;;13.96;56.38;102919.81;4188771;28;20209;-62
2021/11/19 00:13:15;;;;;;;;;;;;;;;13.97;56.53;102923.31;4187908;28;19936;-61
2021/11/19 00:15:17;;;;;;;;;;;;;;;13.97;56.52;102920.69;4189056;28;19963;-61
2021/11/19 00:17:19;;;;;;;;;;;;;;;13.97;56.71;102923.31;4188619;28;20090;-62
2021/11/19 00:19:21;;;;;;;;;;;;;;;13.96;56.51;102919.81;4188766;28;20235;-61
2021/11/19 00:21:25;;;;;;;;;;;;;;;13.96;56.34;102914.53;4188485;28;19921;-61
2021/11/19 00:23:28;;;;;;;;;;;;;;;13.96;56.13;102916.28;4189059;28;20086;-62
2021/11/19 00:25:30;;;;;;;;;;;;;;;13.96;56.63;102916.28;4188845;28;19923;-61
2021/11/19 00:27:32;;;;;;;;;;;;;;;13.96;56.13;102918.94;4188471;28;19916;-60
2021/11/19 00:29:34;;;;;;;;;;;;;;;13.95;56.19;102907.47;4188899;28;19924;-60
2021/11/19 00:31:37;;;;;;;;;;;;;;;13.95;56.69;102904.84;4188443;28;19920;-64
2021/11/19 00:33:40;;;;;;;;;;;;;;;13.94;56.41;102908.38;4188430;28;20251;-61
2021/11/19 00:35:43;;;;;;;;;;;;;;;13.95;56.58;102906.59;4188722;28;19954;-61
2021/11/19 00:37:47;;;;;;;;;;;;;;;13.94;56.46;102913.66;4188379;28;19971;-62
2021/11/19 00:39:49;;;;;;;;;;;;;;;13.94;56.63;102902.19;4188592;28;19916;-62
2021/11/19 00:41:51;;;;;;;;;;;;;;;13.93;56.49;102903.97;4188646;28;19924;-62
2021/11/19 00:43:54;;;;;;;;;;;;;;;13.93;56.57;102901.34;4188430;28;20031;-62
2021/11/19 00:45:56;;;;;;;;;;;;;;;13.93;56.70;102905.75;4188815;28;19920;-62
2021/11/19 00:47:58;;;;;;;;;;;;;;;13.93;56.42;102905.75;4188623;28;19916;-63
2021/11/19 00:50:03;;;;;;;;;;;;;;;13.93;56.40;102908.41;4188504;28;19917;-62
2021/11/19 00:52:05;;;;;;;;;;;;;;;13.92;56.63;102902.22;4188091;28;19987;-62
2021/11/19 00:54:07;;;;;;;;;;;;;;;13.93;56.53;102911.06;4188291;28;19917;-62
2021/11/19 00:56:12;;;;;;;;;;;;;;;13.93;56.35;102908.41;4188557;28;19917;-63
2021/11/19 00:58:14;;;;;;;;;;;;;;;13.92;56.68;102907.50;4188583;28;19939;-63
2021/11/19 01:00:19;;;;;;;;;;;;;;;13.91;56.49;102911.06;4188426;28;19928;-62
2021/11/19 01:02:22;;;;;;;;;;;;;;;13.92;56.47;102909.31;4188339;28;20234;-62
2021/11/19 01:04:25;;;;;;;;;;;;;;;13.92;56.56;102912.81;4188305;28;19924;-62
2021/11/19 01:06:27;;;;;;;;;;;;;;;13.92;56.45;102906.66;4188756;28;19917;-63
2021/11/19 01:08:30;;;;;;;;;;;;;;;13.91;56.50;102900.47;4188322;28;20005;-63
2021/11/19 01:10:33;;;;;;;;;;;;;;;13.91;56.59;102895.19;4188538;28;19921;-62
2021/11/19 01:12:35;;;;;;;;;;;;;;;13.91;56.66;102903.13;4188149;28;19939;-62
2021/11/19 01:14:40;;;;;;;;;;;;;;;13.91;56.42;102903.13;4188226;28;19916;-62
2021/11/19 01:16:44;;;;;;;;;;;;;;;13.90;56.28;102894.31;4188359;28;20208;-63
2021/11/19 01:18:49;;;;;;;;;;;;;;;13.90;56.41;102898.72;4188211;28;19963;-63
2021/11/19 01:20:54;;;;;;;;;;;;;;;13.90;56.48;102891.69;4188214;28;19925;-61
2021/11/19 01:22:57;;;;;;;;;;;;;;;13.89;56.54;102889.91;4187996;28;19917;-62
2021/11/19 01:24:59;;;;;;;;;;;;;;;13.91;56.27;102895.19;4176359;28;19917;-63
2021/11/19 01:27:02;;;;;;;;;;;;;;;13.89;56.56;102887.28;4191529;28;19917;-62
2021/11/19 01:29:06;;;;;;;;;;;;;;;13.89;56.52;102889.91;4191485;28;19917;-62
2021/11/19 01:31:10;;;;;;;;;;;;;;;13.90;56.66;102890.78;4191402;28;20224;-62
2021/11/19 01:33:12;;;;;;;;;;;;;;;13.89;56.42;102892.56;4191055;28;19920;-62
2021/11/19 01:35:15;;;;;;;;;;;;;;;13.89;56.53;102887.28;4191276;28;19924;-63
2021/11/19 01:37:18;;;;;;;;;;;;;;;13.88;56.17;102882.88;4191295;28;19923;-62
2021/11/19 01:39:21;;;;;;;;;;;;;;;13.90;56.27;102888.13;4191264;28;20216;-62
2021/11/19 01:41:33;;;;;;;;;;;;;;;13.88;56.40;102888.16;4191458;28;20159;-61
2021/11/19 01:43:36;;;;;;;;;;;;;;;13.89;56.24;102891.72;4191207;28;19921;-62
2021/11/19 01:45:40;;;;;;;;;;;;;;;13.89;56.58;102886.41;4191257;28;20319;-61
2021/11/19 01:47:44;;;;;;;;;;;;;;;13.89;56.60;102883.78;4191185;28;19939;-61
2021/11/19 01:49:47;;;;;;;;;;;;;;;13.88;56.13;102882.88;4190830;28;19917;-62
2021/11/19 01:51:49;;;;;;;;;;;;;;;13.88;56.43;102885.53;4191194;28;19917;-62
2021/11/19 01:54:04;;;;;;;;;;;;;;;13.89;56.43;102889.06;4191015;28;19916;-62
2021/11/19 01:56:12;;;;;;;;;;;;;;;13.87;56.49;102881.13;4190990;28;19916;-61
2021/11/19 01:58:17;;;;;;;;;;;;;;;13.87;56.55;102874.97;4191307;28;20034;-62
2021/11/19 02:00:22;;;;;;;;;;;;;;;13.87;56.49;102878.47;4191041;28;20201;-61
2021/11/19 02:02:31;;;;;;;;;;;;;;;13.87;56.61;102881.13;4190941;28;19917;-61
2021/11/19 02:04:36;;;;;;;;;;;;;;;13.86;56.45;102884.69;4190634;28;19925;-61
2021/11/19 02:06:43;;;;;;;;;;;;;;;13.87;56.46;102882.91;4190935;28;19963;-62
2021/11/19 02:08:46;;;;;;;;;;;;;;;13.87;56.61;102882.91;4191110;28;19917;-61
2021/11/19 02:11:00;;;;;;;;;;;;;;;13.87;56.29;102882.91;4190688;28;20209;-61
2021/11/19 02:13:02;;;;;;;;;;;;;;;13.87;56.17;102886.41;4190813;28;20307;-61
2021/11/19 02:15:08;;;;;;;;;;;;;;;13.86;56.54;102874.13;4190582;28;19916;-61
2021/11/19 02:17:11;;;;;;;;;;;;;;;13.86;56.48;102874.13;4185223;28;19963;-63
2021/11/19 02:19:18;;;;;;;;;;;;;;;13.87;56.21;102874.97;4174499;28;20074;-62
2021/11/19 02:21:23;;;;;;;;;;;;;;;13.86;56.17;102876.75;4183895;28;19916;-61
2021/11/19 02:23:50;;;;;;;;;;;;;;;13.86;56.53;102874.13;4176438;28;19917;-61
2021/11/19 02:26:02;;;;;;;;;;;;;;;13.86;56.29;102878.50;4178670;28;19939;-62
2021/11/19 02:28:05;;;;;;;;;;;;;;;13.86;56.62;102878.50;4180482;28;19917;-62
2021/11/19 02:30:13;;;;;;;;;;;;;;;13.86;56.58;102879.41;4174718;28;19917;-62
2021/11/19 02:32:17;;;;;;;;;;;;;;;13.86;56.77;102879.41;4187062;28;19921;-60
2021/11/19 02:34:20;;;;;;;;;;;;;;;13.87;56.25;102882.91;4190361;28;19954;-60
2021/11/19 02:36:25;;;;;;;;;;;;;;;13.86;56.54;102879.41;4189375;28;19963;-60
2021/11/19 02:38:32;;;;;;;;;;;;;;;13.85;56.67;102877.66;4190368;28;19917;-61
2021/11/19 02:40:36;;;;;;;;;;;;;;;13.85;56.18;102879.41;4189162;28;19917;-60
2021/11/19 02:42:40;;;;;;;;;;;;;;;13.85;56.62;102875.00;4190371;28;19962;-61
2021/11/19 02:44:43;;;;;;;;;;;;;;;13.85;56.49;102874.13;4190330;28;19917;-60
2021/11/19 02:46:49;;;;;;;;;;;;;;;13.85;56.41;102869.72;4190345;28;20151;-61
2021/11/19 02:48:51;;;;;;;;;;;;;;;13.86;56.42;102875.88;4190496;28;20201;-61
2021/11/19 02:50:54;;;;;;;;;;;;;;;13.86;56.60;102876.75;4190202;28;19916;-61
2021/11/19 02:52:57;;;;;;;;;;;;;;;13.86;56.74;102875.88;4190434;28;19920;-61
2021/11/19 02:55:00;;;;;;;;;;;;;;;13.86;56.40;102881.16;4190332;28;19917;-63
2021/11/19 02:57:03;;;;;;;;;;;;;;;13.86;56.51;102875.88;4190224;28;19916;-61
2021/11/19 02:59:05;;;;;;;;;;;;;;;13.85;56.14;102869.72;4190128;28;19959;-61
2021/11/19 03:01:13;;;;;;;;;;;;;;;13.85;56.59;102872.34;4190143;28;20205;-61
2021/11/19 03:03:15;;;;;;;;;;;;;;;13.85;56.54;102874.13;4186470;28;19929;-61
2021/11/19 03:05:19;;;;;;;;;;;;;;;13.85;56.52;102871.47;4190150;28;19970;-61
2021/11/19 03:07:21;;;;;;;;;;;;;;;13.85;56.48;102868.81;4189829;28;19917;-61
2021/11/19 03:09:24;;;;;;;;;;;;;;;13.84;56.65;102870.59;4190097;28;19951;-61
2021/11/19 03:11:26;;;;;;;;;;;;;;;13.84;56.51;102867.06;4190178;28;20189;-61
2021/11/19 03:13:29;;;;;;;;;;;;;;;13.84;56.24;102867.97;4189874;28;19917;-61
2021/11/19 03:15:33;;;;;;;;;;;;;;;13.84;56.45;102870.59;4189979;28;19917;-61
2021/11/19 03:17:35;;;;;;;;;;;;;;;13.85;56.55;102868.81;4189755;28;19920;-61
2021/11/19 03:19:37;;;;;;;;;;;;;;;13.85;56.59;102866.19;4190041;28;19917;-61
2021/11/19 03:21:40;;;;;;;;;;;;;;;13.84;56.64;102860.03;4189791;28;19924;-61
2021/11/19 03:23:43;;;;;;;;;;;;;;;13.84;56.60;102860.03;4189669;28;19916;-61
2021/11/19 03:25:45;;;;;;;;;;;;;;;13.83;56.47;102863.56;4189814;28;19991;-61
2021/11/19 03:27:48;;;;;;;;;;;;;;;13.84;56.40;102857.38;4189650;28;19917;-61
2021/11/19 03:29:50;;;;;;;;;;;;;;;13.84;56.58;102849.44;4189819;28;20109;-62
2021/11/19 03:31:52;;;;;;;;;;;;;;;13.82;56.49;102855.66;4189891;28;20271;-61
2021/11/19 03:33:54;;;;;;;;;;;;;;;13.82;56.62;102853.00;4189270;28;19924;-61
2021/11/19 03:35:56;;;;;;;;;;;;;;;13.82;56.63;102859.16;4189630;28;19923;-61
2021/11/19 03:37:59;;;;;;;;;;;;;;;13.82;56.43;102853.88;4188331;28;19966;-61
2021/11/19 03:40:01;;;;;;;;;;;;;;;13.82;56.63;102851.22;4189512;28;20132;-61
2021/11/19 03:42:04;;;;;;;;;;;;;;;13.82;56.34;102853.00;4189872;28;19916;-62
2021/11/19 03:44:09;;;;;;;;;;;;;;;13.83;56.69;102857.41;4189452;28;20209;-61
2021/11/19 03:46:13;;;;;;;;;;;;;;;13.82;56.56;102845.09;4189606;28;20148;-61
2021/11/19 03:48:15;;;;;;;;;;;;;;;13.84;56.64;102856.50;4189357;28;19978;-62
2021/11/19 03:50:37;;;;;;;;;;;;;;;13.82;56.55;102855.66;4189341;28;19917;-61
2021/11/19 03:52:40;;;;;;;;;;;;;;;13.81;56.56;102856.56;4189278;28;19954;-61
2021/11/19 03:54:43;;;;;;;;;;;;;;;13.83;56.47;102855.63;4189442;28;19916;-61
2021/11/19 03:56:45;;;;;;;;;;;;;;;13.82;56.30;102851.22;4189476;28;19928;-61
2021/11/19 03:58:47;;;;;;;;;;;;;;;13.82;56.40;102851.22;4189295;28;19916;-61
2021/11/19 04:00:52;;;;;;;;;;;;;;;13.82;56.54;102847.72;4189451;28;19917;-61
2021/11/19 04:02:55;;;;;;;;;;;;;;;13.82;56.36;102851.22;4189407;28;20081;-61
2021/11/19 04:04:57;;;;;;;;;;;;;;;13.81;56.62;102856.56;4188956;28;19932;-61
2021/11/19 04:07:02;;;;;;;;;;;;;;;13.81;56.41;102852.13;4189120;28;19920;-61
2021/11/19 04:09:04;;;;;;;;;;;;;;;13.81;56.51;102852.13;4188878;28;19916;-61
2021/11/19 04:11:07;;;;;;;;;;;;;;;13.82;56.40;102853.00;4189107;28;20209;-61
2021/11/19 04:13:09;;;;;;;;;;;;;;;13.81;56.79;102851.25;4189030;28;19917;-61
2021/11/19 04:15:14;;;;;;;;;;;;;;;13.81;56.72;102851.25;4189010;28;19978;-61
2021/11/19 04:17:16;;;;;;;;;;;;;;;13.81;56.55;102853.91;4189062;28;19916;-61
2021/11/19 04:19:19;;;;;;;;;;;;;;;13.80;56.45;102857.44;4188928;28;19940;-61
2021/11/19 04:21:21;;;;;;;;;;;;;;;13.80;56.59;102853.00;4188999;28;20262;-61
2021/11/19 04:23:24;;;;;;;;;;;;;;;13.80;56.65;102854.78;4188875;28;19928;-61
2021/11/19 04:25:26;;;;;;;;;;;;;;;13.81;56.68;102853.91;4188873;28;19916;-61
2021/11/19 04:27:28;;;;;;;;;;;;;;;13.81;56.63;102857.41;4188893;28;19938;-61
2021/11/19 04:29:30;;;;;;;;;;;;;;;13.80;56.46;102855.66;4189091;28;19924;-61
2021/11/19 04:31:32;;;;;;;;;;;;;;;13.80;56.67;102852.16;4188866;28;20012;-61
2021/11/19 04:33:35;;;;;;;;;;;;;;;13.80;56.46;102854.78;4188662;28;20245;-61
2021/11/19 04:35:37;;;;;;;;;;;;;;;13.80;56.63;102854.78;4188576;28;19917;-61
2021/11/19 04:37:39;;;;;;;;;;;;;;;13.80;56.80;102850.38;4188924;28;20143;-61
2021/11/19 04:39:41;;;;;;;;;;;;;;;13.80;56.56;102854.78;4188641;28;19923;-61
2021/11/19 04:41:43;;;;;;;;;;;;;;;13.80;56.71;102854.78;4188923;28;19955;-61
2021/11/19 04:43:45;;;;;;;;;;;;;;;13.79;56.49;102848.66;4188756;28;19917;-61
2021/11/19 04:45:47;;;;;;;;;;;;;;;13.79;56.64;102856.59;4188517;28;20148;-61
2021/11/19 04:47:49;;;;;;;;;;;;;;;13.80;56.65;102853.00;4188739;28;20255;-61
2021/11/19 04:49:51;;;;;;;;;;;;;;;13.79;56.76;102848.66;4188580;28;20220;-61
2021/11/19 04:51:53;;;;;;;;;;;;;;;13.79;56.35;102848.66;4186776;28;20112;-62
2021/11/19 04:53:55;;;;;;;;;;;;;;;13.79;56.43;102853.94;4172243;28;19917;-61
2021/11/19 04:55:57;;;;;;;;;;;;;;;13.79;56.37;102853.94;4177353;28;19938;-61
2021/11/19 04:57:59;;;;;;;;;;;;;;;13.79;56.59;102853.03;4178948;28;19947;-61
2021/11/19 05:00:04;;;;;;;;;;;;;;;13.78;56.65;102843.34;4171901;28;19917;-61
2021/11/19 05:02:07;;;;;;;;;;;;;;;13.78;56.71;102852.19;4187499;28;19962;-61
2021/11/19 05:04:09;;;;;;;;;;;;;;;13.79;56.52;102853.03;4188747;28;19923;-61
2021/11/19 05:06:12;;;;;;;;;;;;;;;13.78;56.43;102849.53;4188129;28;19917;-61
2021/11/19 05:08:15;;;;;;;;;;;;;;;13.79;56.51;102855.69;4188425;28;19954;-61
2021/11/19 05:10:17;;;;;;;;;;;;;;;13.78;56.43;102843.34;4188644;28;19917;-61
2021/11/19 05:12:22;;;;;;;;;;;;;;;13.78;56.66;102844.25;4188301;28;19954;-62
2021/11/19 05:14:24;;;;;;;;;;;;;;;13.77;56.55;102842.50;4171887;28;19963;-61
2021/11/19 05:16:26;;;;;;;;;;;;;;;13.77;56.56;102842.50;4179655;28;19928;-61
2021/11/19 05:18:29;;;;;;;;;;;;;;;13.77;56.61;102839.84;4188285;28;19917;-61
2021/11/19 05:20:32;;;;;;;;;;;;;;;13.78;56.41;102840.72;4188493;28;19920;-61
2021/11/19 05:22:34;;;;;;;;;;;;;;;13.77;56.24;102837.22;4188045;28;19916;-61
2021/11/19 05:24:37;;;;;;;;;;;;;;;13.77;56.39;102845.16;4188366;28;19917;-61
2021/11/19 05:26:42;;;;;;;;;;;;;;;13.77;56.65;102842.50;4188154;28;19916;-62
2021/11/19 05:28:45;;;;;;;;;;;;;;;13.77;56.75;102841.59;4188505;28;19917;-61
2021/11/19 05:30:47;;;;;;;;;;;;;;;13.77;56.71;102845.16;4188388;28;19924;-61
2021/11/19 05:32:49;;;;;;;;;;;;;;;13.77;56.67;102833.66;4187909;28;19917;-61
2021/11/19 05:34:51;;;;;;;;;;;;;;;13.77;56.59;102841.59;4187987;28;19925;-61
2021/11/19 05:36:53;;;;;;;;;;;;;;;13.76;56.66;102845.19;4188176;28;19916;-61
2021/11/19 05:38:55;;;;;;;;;;;;;;;13.77;56.51;102847.78;4188133;28;19920;-61
2021/11/19 05:40:57;;;;;;;;;;;;;;;13.77;56.31;102842.50;4188403;28;19920;-61
2021/11/19 05:43:00;;;;;;;;;;;;;;;13.76;56.60;102847.81;4187907;28;19924;-62
2021/11/19 05:45:03;;;;;;;;;;;;;;;13.77;56.40;102849.53;4188111;28;19916;-61
2021/11/19 05:47:05;;;;;;;;;;;;;;;13.76;56.64;102855.75;4187960;28;19916;-61
2021/11/19 05:49:12;;;;;;;;;;;;;;;13.76;56.49;102847.81;4187935;28;19923;-61
2021/11/19 05:51:14;;;;;;;;;;;;;;;13.76;56.56;102848.69;4188235;28;19939;-61
2021/11/19 05:53:16;;;;;;;;;;;;;;;13.76;56.66;102848.69;4186599;28;19924;-61
2021/11/19 05:55:20;;;;;;;;;;;;;;;13.76;56.69;102851.31;4188064;28;20101;-61
2021/11/19 05:57:22;;;;;;;;;;;;;;;13.76;56.66;102856.63;4187827;28;19931;-61
2021/11/19 05:59:25;;;;;;;;;;;;;;;13.76;56.52;102859.25;4187937;28;19925;-61
2021/11/19 06:01:27;;;;;;;;;;;;;;;13.75;56.76;102857.50;4188096;28;19916;-61
2021/11/19 06:03:29;;;;;;;;;;;;;;;13.76;56.46;102861.03;4187766;28;19924;-61
2021/11/19 06:05:32;;;;;;;;;;;;;;;13.74;56.74;102856.66;4187947;28;19921;-61
2021/11/19 06:07:34;;;;;;;;;;;;;;;13.76;56.66;102859.25;4188069;28;19962;-61
2021/11/19 06:09:40;;;;;;;;;;;;;;;13.74;56.67;102854.00;4187688;28;20274;-61
2021/11/19 06:11:44;;;;;;;;;;;;;;;13.74;56.39;102861.03;4190436;28;19923;-61
2021/11/19 06:13:53;;;;;;;;;;;;;;;13.74;56.76;102856.66;4190560;28;19917;-60
2021/11/19 06:16:00;;;;;;;;;;;;;;;13.75;56.70;102854.84;4190868;28;19923;-61
2021/11/19 06:18:05;;;;;;;;;;;;;;;13.75;56.60;102860.16;4190712;28;19917;-61
2021/11/19 06:20:14;;;;;;;;;;;;;;;13.74;56.42;102859.28;4190792;28;19920;-61
2021/11/19 06:22:45;;;;;;;;;;;;;;;13.74;56.54;102861.94;4190633;28;19932;-61
2021/11/19 06:24:49;;;;;;;;;;;;;;;13.74;56.67;102861.94;4185455;28;19923;-63
2021/11/19 06:26:51;;;;;;;;;;;;;;;13.74;56.46;102861.03;4174183;28;19925;-61
2021/11/19 06:29:01;;;;;;;;;;;;;;;13.74;56.71;102859.28;4177861;28;19916;-61
2021/11/19 06:31:03;;;;;;;;;;;;;;;13.74;56.75;102863.69;4181240;28;19917;-61
2021/11/19 06:33:06;;;;;;;;;;;;;;;13.74;56.74;102859.28;4174178;28;19917;-61
2021/11/19 06:35:08;;;;;;;;;;;;;;;13.75;56.47;102857.50;4190093;28;20243;-61
2021/11/19 06:37:11;;;;;;;;;;;;;;;13.74;56.66;102861.03;4190352;28;19917;-61
2021/11/19 06:39:15;;;;;;;;;;;;;;;13.73;56.33;102859.28;4190101;28;19920;-61
2021/11/19 06:41:18;;;;;;;;;;;;;;;13.73;56.68;102868.13;4190377;28;19923;-61
2021/11/19 06:43:20;;;;;;;;;;;;;;;13.74;56.42;102866.34;4190462;28;19946;-61
2021/11/19 06:45:22;;;;;;;;;;;;;;;13.73;56.37;102870.75;4190191;28;19917;-61
2021/11/19 06:47:24;;;;;;;;;;;;;;;13.73;56.57;102865.47;4190315;28;20251;-61
2021/11/19 06:49:26;;;;;;;;;;;;;;;13.74;56.48;102866.34;4190238;28;20136;-61
2021/11/19 06:51:28;;;;;;;;;;;;;;;13.73;56.62;102865.47;4190175;28;19924;-61
2021/11/19 06:53:31;;;;;;;;;;;;;;;13.73;56.48;102870.75;4190240;28;20205;-61
2021/11/19 06:55:33;;;;;;;;;;;;;;;13.73;56.40;102867.22;4190016;28;19925;-61
2021/11/19 06:57:35;;;;;;;;;;;;;;;13.73;56.65;102864.56;4190019;28;19955;-61
2021/11/19 06:59:38;;;;;;;;;;;;;;;13.72;56.52;102866.34;4189896;28;19963;-61
2021/11/19 07:01:40;;;;;;;;;;;;;;;13.74;56.62;102871.63;4184291;28;20172;-60
2021/11/19 07:03:42;;;;;;;;;;;;;;;13.73;56.22;102869.88;4173804;28;19925;-61
2021/11/19 07:05:44;;;;;;;;;;;;;;;13.73;56.50;102870.75;4186006;28;19971;-61
2021/11/19 07:07:52;;;;;;;;;;;;;;;13.73;56.67;102875.16;4189938;28;19947;-61
2021/11/19 07:09:54;;;;;;;;;;;;;;;13.72;56.60;102876.09;4189752;28;19925;-61
2021/11/19 07:11:59;;;;;;;;;;;;;;;13.73;56.56;102883.09;4189840;28;19916;-60
2021/11/19 07:14:01;;;;;;;;;;;;;;;13.73;56.54;102885.72;4189974;28;19924;-61
2021/11/19 07:16:04;;;;;;;;;;;;;;;13.72;56.58;102892.81;4189761;28;19921;-64
2021/11/19 07:18:06;;;;;;;;;;;;;;;13.72;56.57;102890.16;4189726;28;19927;-61
2021/11/19 07:20:11;;;;;;;;;;;;;;;13.72;56.29;102898.09;4189795;28;20193;-61
2021/11/19 07:22:13;;;;;;;;;;;;;;;13.73;56.37;102888.38;4189194;28;19916;-61
2021/11/19 07:24:15;;;;;;;;;;;;;;;13.71;56.43;102899.00;4189601;28;19974;-62
2021/11/19 07:26:17;;;;;;;;;;;;;;;13.72;56.45;102903.38;4189365;28;19962;-63
2021/11/19 07:28:19;;;;;;;;;;;;;;;13.72;56.50;102899.88;4189620;28;19917;-61
2021/11/19 07:30:23;;;;;;;;;;;;;;;13.72;56.70;102903.38;4189693;28;20381;-61
2021/11/19 07:32:28;;;;;;;;;;;;;;;13.72;56.57;102906.03;4189602;28;19923;-61
2021/11/19 07:34:30;;;;;;;;;;;;;;;13.72;56.42;102906.03;4189427;28;19921;-61
2021/11/19 07:36:33;;;;;;;;;;;;;;;13.72;56.71;102908.69;4189217;28;19917;-61
2021/11/19 07:38:35;;;;;;;;;;;;;;;13.72;56.64;102911.31;4189349;28;19943;-61
2021/11/19 07:40:39;;;;;;;;;;;;;;;13.72;56.62;102923.69;4189195;28;19921;-61
2021/11/19 07:42:41;;;;;;;;;;;;;;;13.72;56.37;102921.91;4189312;28;20094;-61
2021/11/19 07:44:43;;;;;;;;;;;;;;;13.71;56.52;102920.13;4189471;28;19966;-61
2021/11/19 07:46:45;;;;;;;;;;;;;;;13.72;56.62;102916.59;4189223;28;20197;-62
2021/11/19 07:48:47;;;;;;;;;;;;;;;13.73;56.48;102920.13;4189189;28;19916;-61
2021/11/19 07:50:54;;;;;;;;;;;;;;;13.72;56.34;102919.25;4189089;28;19988;-61
2021/11/19 07:52:56;;;;;;;;;;;;;;;13.72;56.73;102921.03;4185835;28;19916;-61
2021/11/19 07:54:58;;;;;;;;;;;;;;;13.72;56.48;102923.69;4187803;28;20774;-61
2021/11/19 07:57:00;;;;;;;;;;;;;;;13.72;56.58;102921.91;4187277;28;19924;-61
2021/11/19 07:59:06;;;;;;;;;;;;;;;13.71;56.28;102930.72;4180605;28;19920;-61
2021/11/19 08:01:08;;;;;;;;;;;;;;;13.72;56.44;102931.63;4185231;28;19936;-61
2021/11/19 08:03:14;;;;;;;;;;;;;;;13.71;56.27;102933.38;4187485;28;19916;-61
2021/11/19 08:05:17;;;;;;;;;;;;;;;13.71;56.57;102932.50;4184695;28;19928;-62
2021/11/19 08:07:19;;;;;;;;;;;;;;;13.72;56.69;102934.25;4187557;28;19923;-61
2021/11/19 08:09:21;;;;;;;;;;;;;;;13.70;56.35;102936.91;4185011;28;20336;-61
2021/11/19 08:11:24;;;;;;;;;;;;;;;13.72;56.48;102931.63;4188014;28;20112;-61
2021/11/19 08:13:26;;;;;;;;;;;;;;;13.73;56.54;102933.34;4186015;28;20086;-61
2021/11/19 08:15:30;;;;;;;;;;;;;;;13.72;56.33;102944.84;4184890;28;19920;-61
2021/11/19 08:17:40;;;;;;;;;;;;;;;13.72;56.43;102942.19;4186857;28;20168;-61
2021/11/19 08:19:46;;;;;;;;;;;;;;;13.71;56.60;102943.09;4184470;28;19917;-61
2021/11/19 08:21:48;;;;;;;;;;;;;;;13.71;56.55;102936.00;4186744;28;19961;-60
2021/11/19 08:23:53;;;;;;;;;;;;;;;13.73;56.35;102943.91;4187139;28;20015;-62
2021/11/19 08:25:55;;;;;;;;;;;;;;;13.72;56.80;102939.53;4185900;28;19954;-63
2021/11/19 08:28:04;;;;;;;;;;;;;;;13.73;56.65;102930.69;4186046;28;19923;-61
2021/11/19 08:30:09;;;;;;;;;;;;;;;13.72;56.25;102929.81;4187627;28;19992;-66
2021/11/19 08:32:12;;;;;;;;;;;;;;;13.73;56.29;102935.97;4187730;28;19984;-65
2021/11/19 08:34:14;;;;;;;;;;;;;;;13.73;56.47;102939.53;4185450;28;19920;-63
2021/11/19 08:36:18;;;;;;;;;;;;;;;13.74;56.72;102938.63;4187321;28;19924;-62
2021/11/19 08:38:21;;;;;;;;;;;;;;;13.76;56.72;102943.03;4187261;28;19917;-60
2021/11/19 08:40:24;;;;;;;;;;;;;;;13.75;56.91;102934.19;4186961;28;20327;-62
2021/11/19 08:42:27;;;;;;;;;;;;;;;13.76;56.77;102941.25;4187264;28;20165;-62
2021/11/19 08:44:30;;;;;;;;;;;;;;;13.78;57.02;102933.28;4186292;28;19963;-64
2021/11/19 08:46:50;;;;;;;;;;;;;;;13.79;57.14;102935.94;4171912;28;19917;-61
2021/11/19 08:48:52;;;;;;;;;;;;;;;13.81;56.80;102936.75;4187067;28;19916;-62
2021/11/19 08:50:57;;;;;;;;;;;;;;;13.84;57.04;102931.44;4187204;28;19932;-62
2021/11/19 08:53:00;;;;;;;;;;;;;;;13.86;56.75;102934.06;4187331;28;19955;-62
2021/11/19 08:55:06;;;;;;;;;;;;;;;13.87;56.66;102936.66;4187394;28;20027;-67
2021/11/19 08:57:14;;;;;;;;;;;;;;;13.89;56.51;102926.94;4187495;28;19938;-62
2021/11/19 08:59:16;;;;;;;;;;;;;;;13.90;56.67;102926.06;4186985;28;19923;-61
2021/11/19 09:01:20;;;;;;;;;;;;;;;13.93;56.53;102925.13;4187472;28;19917;-62
2021/11/19 09:03:22;;;;;;;;;;;;;;;13.94;56.59;102921.59;4188013;28;19923;-62
2021/11/19 09:05:25;;;;;;;;;;;;;;;13.95;56.54;102933.03;4187926;28;19963;-61
2021/11/19 09:07:27;;;;;;;;;;;;;;;13.98;56.58;102933.00;4188440;28;19920;-62
2021/11/19 09:09:30;;;;;;;;;;;;;;;14.00;56.33;102941.81;4187578;28;19920;-61
2021/11/19 09:11:33;;;;;;;;;;;;;;;14.01;56.53;102946.19;4187907;28;19963;-61
2021/11/19 09:13:36;;;;;;;;;;;;;;;14.02;56.33;102934.72;4187747;28;20205;-61
2021/11/19 09:15:38;;;;;;;;;;;;;;;14.03;56.66;102942.66;4187624;28;19916;-60
2021/11/19 09:17:48;;;;;;;;;;;;;;;14.05;56.67;102942.63;4186774;28;19924;-62
2021/11/19 09:19:50;;;;;;;;;;;;;;;14.07;56.80;102935.53;4187374;28;19917;-60
2021/11/19 09:22:09;;;;;;;;;;;;;;;14.11;56.84;102944.28;4187936;28;19923;-61
2021/11/19 09:24:13;;;;;;;;;;;;;;;14.13;56.69;102939.84;4187129;28;19917;-62
2021/11/19 09:26:19;;;;;;;;;;;;;;;14.15;57.17;102943.34;4187905;28;20152;-63
2021/11/19 09:28:22;;;;;;;;;;;;;;;14.18;57.00;102940.66;4186013;28;19990;-61
2021/11/19 09:30:29;;;;;;;;;;;;;;;14.20;56.96;102941.50;4187578;28;19923;-62
2021/11/19 09:32:31;;;;;;;;;;;;;;;14.21;56.61;102946.78;4184874;28;20101;-61
2021/11/19 09:34:36;;;;;;;;;;;;;;;14.26;56.92;102956.44;4185859;28;19962;-62
2021/11/19 09:36:40;;;;;;;;;;;;;;;14.27;56.60;102952.88;4184414;28;20393;-63
2021/11/19 09:38:43;;;;;;;;;;;;;;;14.28;56.90;102957.28;4186198;28;19992;-62
2021/11/19 09:40:52;;;;;;;;;;;;;;;14.31;56.78;102954.56;4185604;28;19916;-61
2021/11/19 09:43:01;;;;;;;;;;;;;;;14.34;56.82;102955.41;4185297;28;19925;-61
2021/11/19 09:45:03;;;;;;;;;;;;;;;14.35;56.48;102965.09;4185338;28;19916;-60
2021/11/19 09:47:14;;;;;;;;;;;;;;;14.38;56.42;102961.53;4183188;28;20101;-66
2021/11/19 09:49:35;;;;;;;;;;;;;;;14.43;56.73;102962.31;4186759;28;20129;-63
2021/11/19 09:51:39;;;;;;;;;;;;;;;14.42;56.38;102955.28;4190441;28;20205;-62
2021/11/19 09:53:55;;;;;;;;;;;;;;;14.49;56.23;102961.38;4186678;28;20201;-62
2021/11/19 09:56:15;;;;;;;;;;;;;;;14.47;56.13;102956.09;4189099;28;19917;-61
2021/11/19 09:58:20;;;;;;;;;;;;;;;14.48;56.13;102957.84;4184601;28;19955;-62
2021/11/19 10:00:22;;;;;;;;;;;;;;;14.50;56.24;102955.19;4186180;28;19917;-61
2021/11/19 10:02:33;;;;;;;;;;;;;;;14.51;56.52;102952.50;4177752;28;20252;-61
2021/11/19 10:04:43;;;;;;;;;;;;;;;14.53;56.41;102950.69;4204441;28;20434;-62
2021/11/19 10:06:46;;;;;;;;;;;;;;;14.53;56.51;102953.34;4186608;28;19944;-62
2021/11/19 10:08:50;;;;;;;;;;;;;;;14.56;56.28;102954.19;4194750;28;19916;-62
2021/11/19 10:10:55;;;;;;;;;;;;;;;14.57;56.05;102951.53;4201554;28;19991;-62
2021/11/19 10:13:09;;;;;;;;;;;;;;;14.59;56.06;102948.84;4186075;28;19975;-61
2021/11/19 10:15:19;;;;;;;;;;;;;;;14.58;56.04;102947.97;4184101;28;19963;-61
2021/11/19 10:17:24;;;;;;;;;;;;;;;14.59;56.05;102944.41;4169606;28;19978;-61
2021/11/19 10:19:28;;;;;;;;;;;;;;;14.59;55.73;102943.53;4189198;28;19948;-62
2021/11/19 10:21:53;;;;;;;;;;;;;;;14.61;56.10;102941.75;4189470;28;19991;-64
2021/11/19 10:24:16;;;;;;;;;;;;;;;14.62;55.81;102936.44;4162846;28;19994;-61
2021/11/19 10:26:18;;;;;;;;;;;;;;;14.64;55.63;102942.59;4174722;28;19944;-62
2021/11/19 10:28:41;;;;;;;;;;;;;;;14.65;56.01;102935.50;4177576;28;19989;-62
2021/11/19 10:30:49;;;;;;;;;;;;;;;14.67;55.92;102936.38;4188739;28;20223;-61
2021/11/19 10:32:51;;;;;;;;;;;;;;;14.67;55.85;102941.69;4178582;28;19975;-63
2021/11/19 10:35:00;;;;;;;;;;;;;;;14.68;55.71;102932.84;4191275;28;19916;-66
2021/11/19 10:37:17;;;;;;;;;;;;;;;14.68;55.66;102930.19;4194982;28;19962;-63